Terminal Aerodrome Forecast
Issued by NWS

Home | Current Version | Previous Version | Text Only | Print | Product List | Glossary On
Versions: 1 2 3 4 5 6 7 8 9 10 11 12 13 14
680
FTUS42 TJSJ 052347
TAFIST
TAF
TIST 052347Z 0600/0624 19005KT P6SM VCSH FEW030 FEW060
     FM061400 17013KT P6SM SCT030 SCT060
     FM062300 11008KT P6SM FEW030=

USA.gov is the U.S. government's official web portal to all federal, state and local government web resources and services.